Time;durP1;ratioP1;P1;durP2;ratioP2;P2;SDS_P1;SDS_P2;PMS_P1;PMS_P2;Temp;Humidity;BMP_temperature;BMP_pressure;BME280_temperature;BME280_humidity;BME280_pressure;Samples;Min_cycle;Max_cycle;Signal;HPM_P1;HPM_P2
2022/01/04 00:00:17;;;;;;;;;;;;;;;12.42;68.20;99810.47;1054056;28;901;-58
2022/01/04 00:01:08;;;;;;;;;;;;;;;12.42;67.74;99812.28;1054605;28;653;-58
2022/01/04 00:01:59;;;;;;;;;;;;;;;12.42;68.33;99813.13;1054579;28;755;-58
2022/01/04 00:02:49;;;;;;;;;;;;;;;12.42;67.48;99804.28;1053497;28;811;-58
2022/01/04 00:03:41;;;;;;;;;;;;;;;12.41;67.66;99814.13;1054695;28;715;-58
2022/01/04 00:04:31;;;;;;;;;;;;;;;12.42;68.09;99809.63;1053381;28;658;-58
2022/01/04 00:05:22;;;;;;;;;;;;;;;12.43;68.32;99806.81;1054010;28;625;-58
2022/01/04 00:06:12;;;;;;;;;;;;;;;12.43;67.66;99805.97;1053448;28;1346;-58
2022/01/04 00:07:03;;;;;;;;;;;;;;;12.42;68.09;99813.13;1054088;28;656;-59
2022/01/04 00:07:53;;;;;;;;;;;;;;;12.42;67.90;99802.44;1054032;28;672;-58
2022/01/04 00:08:43;;;;;;;;;;;;;;;12.43;68.43;99800.63;1053532;28;762;-58
2022/01/04 00:09:39;;;;;;;;;;;;;;;12.43;67.49;99800.63;1054015;28;669;-58
2022/01/04 00:10:29;;;;;;;;;;;;;;;12.41;67.68;99791.91;1053500;28;859;-58
2022/01/04 00:11:31;;;;;;;;;;;;;;;12.39;67.92;99792.03;1054610;28;677;-59
2022/01/04 00:13:31;;;;;;;;;;;;;;;12.40;67.63;99790.22;1053948;28;677;-59
2022/01/04 00:14:21;;;;;;;;;;;;;;;12.39;67.59;99789.34;1053993;28;700;-58
2022/01/04 00:15:12;;;;;;;;;;;;;;;12.40;67.89;99790.22;1054004;28;625;-58
2022/01/04 00:16:03;;;;;;;;;;;;;;;12.41;68.09;99783.88;1053971;28;653;-58
2022/01/04 00:16:55;;;;;;;;;;;;;;;12.41;67.63;99782.06;1053505;28;654;-58
2022/01/04 00:17:45;;;;;;;;;;;;;;;12.41;67.75;99779.38;1053548;28;655;-58
2022/01/04 00:18:36;;;;;;;;;;;;;;;12.41;68.18;99779.38;1054666;28;649;-58
2022/01/04 00:19:26;;;;;;;;;;;;;;;12.40;67.52;99779.53;1054731;28;756;-58
2022/01/04 00:20:17;;;;;;;;;;;;;;;12.39;67.97;99770.66;1054652;28;760;-58
2022/01/04 00:21:07;;;;;;;;;;;;;;;12.40;68.39;99779.53;1056323;28;1647;-58
2022/01/04 00:22:00;;;;;;;;;;;;;;;12.40;67.75;99768.84;1057602;28;652;-58
2022/01/04 00:22:50;;;;;;;;;;;;;;;12.40;68.34;99768.84;1057627;28;774;-58
2022/01/04 00:23:41;;;;;;;;;;;;;;;12.40;68.23;99763.50;1056783;28;689;-59
2022/01/04 00:24:31;;;;;;;;;;;;;;;12.40;67.53;99759.00;1057675;28;630;-58
2022/01/04 00:25:21;;;;;;;;;;;;;;;12.42;67.63;99761.53;1057692;28;857;-58
2022/01/04 00:26:12;;;;;;;;;;;;;;;12.42;68.28;99758.84;1058944;28;683;-58
2022/01/04 00:27:02;;;;;;;;;;;;;;;12.43;68.03;99757.88;1057616;28;750;-58
2022/01/04 00:27:53;;;;;;;;;;;;;;;12.43;67.89;99763.22;1057509;28;668;-59
2022/01/04 00:28:43;;;;;;;;;;;;;;;12.42;68.12;99761.53;1057735;28;621;-59
2022/01/04 00:29:33;;;;;;;;;;;;;;;12.42;67.74;99761.53;1057558;28;1287;-59
2022/01/04 00:30:28;;;;;;;;;;;;;;;12.43;67.77;99757.88;1061814;28;617;-59
2022/01/04 00:31:18;;;;;;;;;;;;;;;12.41;68.32;99754.50;1062002;28;862;-59
2022/01/04 00:32:09;;;;;;;;;;;;;;;12.41;68.20;99746.47;1062014;28;617;-60
2022/01/04 00:32:59;;;;;;;;;;;;;;;12.41;68.15;99749.16;1061971;28;649;-59
2022/01/04 00:33:50;;;;;;;;;;;;;;;12.40;67.66;99742.97;1063172;27;712;-59
2022/01/04 00:34:41;;;;;;;;;;;;;;;12.40;68.23;99748.31;1061868;28;614;-59
2022/01/04 00:35:31;;;;;;;;;;;;;;;12.40;67.74;99744.78;1061876;28;694;-59
2022/01/04 00:36:22;;;;;;;;;;;;;;;12.40;68.30;99737.63;1061810;28;1015;-59
2022/01/04 00:37:12;;;;;;;;;;;;;;;12.41;67.59;99741.13;1062009;28;665;-59
2022/01/04 00:38:03;;;;;;;;;;;;;;;12.40;67.62;99736.78;1063207;27;827;-59
2022/01/04 00:38:53;;;;;;;;;;;;;;;12.39;67.68;99735.94;1061926;28;700;-59
2022/01/04 00:39:43;;;;;;;;;;;;;;;12.38;68.47;99733.38;1061785;28;813;-59
2022/01/04 00:40:34;;;;;;;;;;;;;;;12.38;68.31;99730.72;1063136;27;605;-59
2022/01/04 00:41:24;;;;;;;;;;;;;;;12.40;68.03;99739.44;1061866;28;739;-59
2022/01/04 00:42:14;;;;;;;;;;;;;;;12.39;67.70;99730.59;1061923;28;712;-59
2022/01/04 00:43:05;;;;;;;;;;;;;;;12.41;68.37;99733.13;1061921;28;699;-59
2022/01/04 00:43:55;;;;;;;;;;;;;;;12.41;67.54;99727.78;1061853;28;908;-59
2022/01/04 00:44:46;;;;;;;;;;;;;;;12.40;67.48;99720.75;1061787;28;633;-59
2022/01/04 00:45:37;;;;;;;;;;;;;;;12.40;67.51;99726.94;1061842;28;739;-59
2022/01/04 00:46:27;;;;;;;;;;;;;;;12.40;67.58;99721.59;1061876;28;708;-59
2022/01/04 00:47:25;;;;;;;;;;;;;;;12.39;68.45;99725.25;1062981;27;1313;-59
2022/01/04 00:49:10;;;;;;;;;;;;;;;12.39;67.66;99725.25;1062030;28;1898;-59
2022/01/04 00:50:00;;;;;;;;;;;;;;;12.37;68.52;99715.66;1061820;28;928;-59
2022/01/04 00:50:50;;;;;;;;;;;;;;;12.38;67.84;99717.34;1061911;28;698;-59
2022/01/04 00:51:41;;;;;;;;;;;;;;;12.37;68.45;99716.50;1061737;28;665;-59
2022/01/04 00:52:31;;;;;;;;;;;;;;;12.39;68.30;99713.72;1061755;28;753;-60
2022/01/04 00:53:22;;;;;;;;;;;;;;;12.39;67.75;99714.56;1062406;28;664;-59
2022/01/04 00:54:13;;;;;;;;;;;;;;;12.40;67.54;99704.72;1061862;28;866;-60
2022/01/04 00:55:03;;;;;;;;;;;;;;;12.39;67.86;99708.38;1062010;28;723;-59
2022/01/04 00:55:54;;;;;;;;;;;;;;;12.38;67.69;99714.69;1063167;27;708;-59
2022/01/04 00:56:44;;;;;;;;;;;;;;;12.38;68.34;99706.66;1063013;27;659;-59
2022/01/04 00:57:35;;;;;;;;;;;;;;;12.37;67.94;99711.16;1061689;28;657;-59
2022/01/04 00:58:25;;;;;;;;;;;;;;;12.38;67.89;99710.19;1061849;28;730;-59
2022/01/04 00:59:17;;;;;;;;;;;;;;;12.39;67.75;99705.69;1061957;28;713;-59
2022/01/04 01:00:07;;;;;;;;;;;;;;;12.39;67.30;99713.72;1061891;28;749;-60
2022/01/04 01:00:57;;;;;;;;;;;;;;;12.39;67.77;99705.69;1061880;28;888;-59
2022/01/04 01:01:48;;;;;;;;;;;;;;;12.39;68.04;99703.03;1061870;28;718;-59
2022/01/04 01:02:38;;;;;;;;;;;;;;;12.40;68.26;99704.72;1062572;27;771;-60
2022/01/04 01:03:29;;;;;;;;;;;;;;;12.40;67.43;99702.03;1063789;27;672;-59
2022/01/04 01:04:19;;;;;;;;;;;;;;;12.40;67.52;99700.22;1062566;27;726;-60
2022/01/04 01:05:10;;;;;;;;;;;;;;;12.40;68.03;99702.03;1062644;27;627;-59
2022/01/04 01:06:00;;;;;;;;;;;;;;;12.39;67.84;99695.00;1062723;27;685;-59
2022/01/04 01:06:50;;;;;;;;;;;;;;;12.39;67.66;99700.34;1062597;27;849;-59
2022/01/04 01:07:41;;;;;;;;;;;;;;;12.40;68.29;99705.56;1062311;27;751;-59
2022/01/04 01:08:31;;;;;;;;;;;;;;;12.41;68.10;99695.72;1062555;27;761;-60
2022/01/04 01:09:23;;;;;;;;;;;;;;;12.40;68.36;99694.88;1062449;27;1902;-59
2022/01/04 01:11:16;;;;;;;;;;;;;;;12.40;68.32;99691.34;1062530;27;817;-59
2022/01/04 01:12:07;;;;;;;;;;;;;;;12.39;67.78;99687.84;1062587;27;622;-59
2022/01/04 01:12:57;;;;;;;;;;;;;;;12.39;68.32;99687.00;1062596;27;813;-60
2022/01/04 01:13:48;;;;;;;;;;;;;;;12.39;67.39;99687.00;1062606;27;629;-59
2022/01/04 01:14:38;;;;;;;;;;;;;;;12.38;67.83;99683.47;1062545;27;684;-59
2022/01/04 01:15:29;;;;;;;;;;;;;;;12.40;67.44;99688.69;1062593;27;768;-59
2022/01/04 01:16:19;;;;;;;;;;;;;;;12.39;67.74;99684.31;1062610;27;733;-60
2022/01/04 01:17:10;;;;;;;;;;;;;;;12.39;67.92;99678.97;1063201;27;881;-59
2022/01/04 01:18:00;;;;;;;;;;;;;;;12.40;68.36;99681.50;1062654;27;753;-59
2022/01/04 01:18:51;;;;;;;;;;;;;;;12.40;67.70;99678.00;1062711;27;680;-59
2022/01/04 01:19:41;;;;;;;;;;;;;;;12.40;68.33;99678.84;1062557;27;748;-59
2022/01/04 01:20:31;;;;;;;;;;;;;;;12.40;67.53;99680.66;1062539;27;746;-59
2022/01/04 01:21:22;;;;;;;;;;;;;;;12.40;68.38;99684.19;1058487;28;1814;-59
2022/01/04 01:22:12;;;;;;;;;;;;;;;12.39;67.75;99673.63;1057802;28;810;-59
2022/01/04 01:23:03;;;;;;;;;;;;;;;12.41;67.56;99679.69;1057145;28;633;-59
2022/01/04 01:23:53;;;;;;;;;;;;;;;12.41;68.30;99663.66;1058241;28;816;-60
2022/01/04 01:24:43;;;;;;;;;;;;;;;12.38;68.44;99663.94;1058285;28;688;-59
2022/01/04 01:25:34;;;;;;;;;;;;;;;12.40;67.68;99672.66;1058758;28;708;-59
2022/01/04 01:26:24;;;;;;;;;;;;;;;12.38;67.79;99670.13;1057784;28;657;-59
2022/01/04 01:27:15;;;;;;;;;;;;;;;12.38;68.08;99670.13;1058306;28;629;-59
2022/01/04 01:28:05;;;;;;;;;;;;;;;12.38;67.46;99670.13;1058254;28;625;-59
2022/01/04 01:28:56;;;;;;;;;;;;;;;12.37;68.26;99671.09;1058435;28;649;-59
2022/01/04 01:29:46;;;;;;;;;;;;;;;12.38;68.50;99670.13;1057645;28;753;-60
2022/01/04 01:30:40;;;;;;;;;;;;;;;12.38;67.44;99670.13;1058155;28;809;-60
2022/01/04 01:31:30;;;;;;;;;;;;;;;12.38;68.26;99669.28;1057675;28;712;-59
2022/01/04 01:32:21;;;;;;;;;;;;;;;12.38;67.72;99671.94;1057463;28;578;-59
2022/01/04 01:33:11;;;;;;;;;;;;;;;12.37;67.61;99670.25;1058310;28;749;-59
2022/01/04 01:34:01;;;;;;;;;;;;;;;12.37;67.87;99668.44;1058270;28;922;-59
2022/01/04 01:34:52;;;;;;;;;;;;;;;12.38;67.77;99677.28;1059542;27;683;-59
2022/01/04 01:35:42;;;;;;;;;;;;;;;12.38;67.84;99663.94;1058380;28;648;-59
2022/01/04 01:36:33;;;;;;;;;;;;;;;12.38;67.94;99669.28;1058048;28;1451;-60
2022/01/04 01:37:23;;;;;;;;;;;;;;;12.38;67.43;99670.13;1058207;28;648;-59
2022/01/04 01:38:16;;;;;;;;;;;;;;;12.40;67.91;99667.31;1058281;28;874;-59
2022/01/04 01:39:08;;;;;;;;;;;;;;;12.38;67.61;99664.78;1057542;28;642;-59
2022/01/04 01:39:58;;;;;;;;;;;;;;;12.39;67.77;99666.47;1057616;28;688;-59
2022/01/04 01:40:48;;;;;;;;;;;;;;;12.38;68.30;99664.78;1058205;28;821;-59
2022/01/04 01:41:39;;;;;;;;;;;;;;;12.38;67.51;99664.78;1058176;28;613;-59
2022/01/04 01:42:29;;;;;;;;;;;;;;;12.37;67.58;99660.41;1058153;28;874;-59
2022/01/04 01:43:20;;;;;;;;;;;;;;;12.37;68.31;99667.59;1058162;28;747;-59
2022/01/04 01:44:10;;;;;;;;;;;;;;;12.36;68.26;99672.09;1058151;28;882;-60
2022/01/04 01:45:01;;;;;;;;;;;;;;;12.36;67.74;99660.59;1058858;28;684;-59
2022/01/04 01:45:53;;;;;;;;;;;;;;;12.37;68.44;99673.78;1058282;28;672;-59
2022/01/04 01:46:43;;;;;;;;;;;;;;;12.36;68.30;99668.59;1057523;28;951;-59
2022/01/04 01:47:34;;;;;;;;;;;;;;;12.38;68.15;99658.59;1058259;28;728;-59
2022/01/04 01:48:24;;;;;;;;;;;;;;;12.38;67.97;99654.09;1058117;28;745;-60
2022/01/04 01:49:14;;;;;;;;;;;;;;;12.37;67.47;99652.41;1058209;28;1913;-59
2022/01/04 01:50:05;;;;;;;;;;;;;;;12.37;67.55;99651.56;1058217;28;673;-60
2022/01/04 01:50:55;;;;;;;;;;;;;;;12.37;68.11;99649.72;1058172;28;919;-59
2022/01/04 01:51:46;;;;;;;;;;;;;;;12.37;67.53;99651.56;1053331;28;771;-59
2022/01/04 01:52:36;;;;;;;;;;;;;;;12.37;68.32;99646.22;1054165;28;838;-60
2022/01/04 01:53:26;;;;;;;;;;;;;;;12.38;68.29;99647.91;1058092;28;664;-59
2022/01/04 01:54:17;;;;;;;;;;;;;;;12.38;67.45;99651.41;1058169;28;660;-59
2022/01/04 01:55:07;;;;;;;;;;;;;;;12.38;68.11;99650.56;1058195;28;757;-59
2022/01/04 01:55:58;;;;;;;;;;;;;;;12.38;67.72;99647.91;1058100;28;637;-59
2022/01/04 01:56:48;;;;;;;;;;;;;;;12.38;68.08;99639.88;1058180;28;844;-59
2022/01/04 01:57:38;;;;;;;;;;;;;;;12.36;68.41;99640.03;1058157;28;700;-59
2022/01/04 01:58:29;;;;;;;;;;;;;;;12.37;68.14;99635.53;1058116;28;661;-59
2022/01/04 01:59:19;;;;;;;;;;;;;;;12.37;67.84;99635.53;1058225;28;762;-59
2022/01/04 02:00:10;;;;;;;;;;;;;;;12.38;68.10;99634.53;1058142;28;747;-59
2022/01/04 02:01:00;;;;;;;;;;;;;;;12.38;68.09;99629.19;1058101;28;922;-60
2022/01/04 02:01:51;;;;;;;;;;;;;;;12.37;68.21;99624.84;1059322;27;728;-59
2022/01/04 02:02:41;;;;;;;;;;;;;;;12.37;68.07;99630.19;1057549;28;653;-58
2022/01/04 02:03:32;;;;;;;;;;;;;;;12.37;67.61;99630.19;1057985;28;823;-59
2022/01/04 02:04:22;;;;;;;;;;;;;;;12.36;67.54;99632.00;1058156;28;734;-59
2022/01/04 02:05:13;;;;;;;;;;;;;;;12.37;68.21;99631.03;1058557;28;785;-59
2022/01/04 02:06:03;;;;;;;;;;;;;;;12.38;67.72;99626.53;1057811;28;1260;-59
2022/01/04 02:06:54;;;;;;;;;;;;;;;12.38;67.49;99626.53;1062565;27;648;-59
2022/01/04 02:07:44;;;;;;;;;;;;;;;12.38;68.37;99635.38;1062323;27;767;-59
2022/01/04 02:08:35;;;;;;;;;;;;;;;12.38;67.54;99618.50;1061244;27;1219;-59
2022/01/04 02:09:26;;;;;;;;;;;;;;;12.38;67.69;99618.50;1062205;27;1960;-59
2022/01/04 02:10:17;;;;;;;;;;;;;;;12.38;67.50;99626.53;1063049;27;667;-59
2022/01/04 02:11:07;;;;;;;;;;;;;;;12.38;68.37;99622.03;1062428;27;765;-59
2022/01/04 02:11:57;;;;;;;;;;;;;;;12.38;67.70;99616.69;1062463;27;692;-59
2022/01/04 02:12:49;;;;;;;;;;;;;;;12.38;67.82;99618.50;1061755;27;640;-59
2022/01/04 02:13:39;;;;;;;;;;;;;;;12.39;68.51;99620.19;1062304;27;721;-59
2022/01/04 02:14:29;;;;;;;;;;;;;;;12.38;67.67;99610.50;1062251;27;609;-59
2022/01/04 02:15:20;;;;;;;;;;;;;;;12.37;67.76;99603.47;1062236;27;639;-58
2022/01/04 02:16:10;;;;;;;;;;;;;;;12.35;67.45;99608.97;1062314;27;712;-59
2022/01/04 02:17:01;;;;;;;;;;;;;;;12.37;67.61;99606.13;1062268;27;637;-59
2022/01/04 02:17:51;;;;;;;;;;;;;;;12.37;68.06;99614.16;1062320;27;826;-59
2022/01/04 02:18:42;;;;;;;;;;;;;;;12.37;67.85;99608.81;1062495;27;660;-59
2022/01/04 02:19:32;;;;;;;;;;;;;;;12.37;68.52;99596.28;1062279;27;708;-59
2022/01/04 02:20:22;;;;;;;;;;;;;;;12.37;67.69;99603.47;1062369;27;665;-59
2022/01/04 02:21:13;;;;;;;;;;;;;;;12.37;68.37;99606.13;1062229;27;1371;-59
2022/01/04 02:22:03;;;;;;;;;;;;;;;12.38;68.51;99605.16;1062268;27;924;-59
2022/01/04 02:22:54;;;;;;;;;;;;;;;12.37;68.44;99608.81;1062449;27;645;-59
2022/01/04 02:23:44;;;;;;;;;;;;;;;12.36;67.73;99599.94;1062296;27;664;-59
2022/01/04 02:24:35;;;;;;;;;;;;;;;12.36;67.71;99597.28;1063507;27;665;-59
2022/01/04 02:25:25;;;;;;;;;;;;;;;12.37;67.57;99601.63;1057817;28;648;-59
2022/01/04 02:26:16;;;;;;;;;;;;;;;12.36;67.47;99607.16;1058923;27;937;-59
2022/01/04 02:27:06;;;;;;;;;;;;;;;12.38;67.56;99602.47;1062824;27;684;-59
2022/01/04 02:27:56;;;;;;;;;;;;;;;12.38;67.79;99595.31;1062438;27;632;-58
2022/01/04 02:28:47;;;;;;;;;;;;;;;12.38;67.82;99600.66;1062237;27;716;-59
2022/01/04 02:29:37;;;;;;;;;;;;;;;12.37;68.18;99590.94;1062195;27;676;-59
2022/01/04 02:30:28;;;;;;;;;;;;;;;12.39;68.17;99590.81;1063329;27;925;-59
2022/01/04 02:31:18;;;;;;;;;;;;;;;12.38;68.29;99584.63;1062301;27;737;-59
2022/01/04 02:32:09;;;;;;;;;;;;;;;12.38;68.21;99584.63;1062450;27;637;-59
2022/01/04 02:32:59;;;;;;;;;;;;;;;12.37;68.14;99590.94;1062350;27;653;-59
2022/01/04 02:33:49;;;;;;;;;;;;;;;12.35;68.23;99579.59;1062283;27;785;-58
2022/01/04 02:34:40;;;;;;;;;;;;;;;12.36;67.89;99586.59;1062862;27;945;-59
2022/01/04 02:35:30;;;;;;;;;;;;;;;12.36;68.47;99577.75;1062251;27;648;-59
2022/01/04 02:36:21;;;;;;;;;;;;;;;12.36;68.39;99578.56;1062250;27;1269;-59
2022/01/04 02:37:11;;;;;;;;;;;;;;;12.36;67.78;99581.25;1062320;27;692;-58
2022/01/04 02:38:02;;;;;;;;;;;;;;;12.36;67.69;99575.09;1062369;27;660;-59
2022/01/04 02:38:52;;;;;;;;;;;;;;;12.36;68.38;99581.25;1062089;27;899;-59
2022/01/04 02:39:42;;;;;;;;;;;;;;;12.36;67.78;99580.44;1061806;27;660;-58
2022/01/04 02:40:33;;;;;;;;;;;;;;;12.36;68.26;99575.91;1062224;27;808;-59
2022/01/04 02:41:23;;;;;;;;;;;;;;;12.35;67.85;99576.91;1062298;27;791;-59
2022/01/04 02:42:14;;;;;;;;;;;;;;;12.35;67.62;99578.75;1063500;27;676;-59
2022/01/04 02:43:04;;;;;;;;;;;;;;;12.35;67.57;99576.06;1062085;27;838;-59
2022/01/04 02:43:55;;;;;;;;;;;;;;;12.35;68.04;99579.59;1062911;27;699;-59
2022/01/04 02:44:45;;;;;;;;;;;;;;;12.35;68.44;99574.25;1062133;27;657;-59
2022/01/04 02:45:36;;;;;;;;;;;;;;;12.35;68.27;99571.56;1062299;27;625;-59
2022/01/04 02:46:26;;;;;;;;;;;;;;;12.35;68.41;99578.75;1062155;27;605;-59
2022/01/04 02:47:16;;;;;;;;;;;;;;;12.35;68.40;99568.06;1062169;27;1121;-59
2022/01/04 02:48:07;;;;;;;;;;;;;;;12.35;67.86;99562.72;1062174;27;708;-59
2022/01/04 02:48:57;;;;;;;;;;;;;;;12.34;67.92;99555.69;1062218;27;767;-59
2022/01/04 02:49:48;;;;;;;;;;;;;;;12.33;68.21;99554.84;1062363;27;713;-59
2022/01/04 02:50:38;;;;;;;;;;;;;;;12.34;68.24;99555.69;1061590;27;700;-59
2022/01/04 02:51:29;;;;;;;;;;;;;;;12.35;67.52;99558.22;1062054;27;1423;-59
2022/01/04 02:52:19;;;;;;;;;;;;;;;12.35;67.81;99555.53;1062237;27;641;-59
2022/01/04 02:53:09;;;;;;;;;;;;;;;12.34;67.67;99558.34;1062244;27;868;-59
2022/01/04 02:54:00;;;;;;;;;;;;;;;12.35;68.42;99557.38;1062256;27;641;-59
2022/01/04 02:54:50;;;;;;;;;;;;;;;12.34;68.02;99563.69;1062214;27;665;-59
2022/01/04 02:55:41;;;;;;;;;;;;;;;12.36;67.87;99559.06;1062135;27;649;-59
2022/01/04 02:56:31;;;;;;;;;;;;;;;12.36;68.19;99551.06;1062097;27;684;-60
2022/01/04 02:57:21;;;;;;;;;;;;;;;12.35;67.58;99547.53;1062165;27;721;-59
2022/01/04 02:58:12;;;;;;;;;;;;;;;12.36;68.37;99553.72;1062145;27;700;-59
2022/01/04 02:59:04;;;;;;;;;;;;;;;12.36;67.78;99554.53;1062348;27;743;-59
2022/01/04 02:59:54;;;;;;;;;;;;;;;12.36;68.45;99546.50;1062175;27;789;-59
2022/01/04 03:00:45;;;;;;;;;;;;;;;12.35;67.89;99542.19;1062163;27;829;-59
2022/01/04 03:01:35;;;;;;;;;;;;;;;12.36;67.60;99551.88;1062618;27;785;-59
2022/01/04 03:02:26;;;;;;;;;;;;;;;12.37;68.41;99550.03;1062235;27;644;-59
2022/01/04 03:03:16;;;;;;;;;;;;;;;12.37;68.41;99544.69;1062102;27;801;-59
2022/01/04 03:04:07;;;;;;;;;;;;;;;12.35;68.23;99542.19;1062266;27;664;-59
2022/01/04 03:04:58;;;;;;;;;;;;;;;12.37;67.55;99542.88;1061808;27;756;-60
2022/01/04 03:05:48;;;;;;;;;;;;;;;12.36;68.31;99543.84;1052978;28;734;-59
2022/01/04 03:06:39;;;;;;;;;;;;;;;12.37;68.48;99544.69;1053086;28;1186;-59
2022/01/04 03:07:29;;;;;;;;;;;;;;;12.36;68.28;99532.34;1053582;28;624;-59
2022/01/04 03:08:20;;;;;;;;;;;;;;;12.36;68.45;99545.72;1053189;28;642;-59
2022/01/04 03:09:10;;;;;;;;;;;;;;;12.36;68.00;99537.69;1052980;28;1967;-59
2022/01/04 03:10:00;;;;;;;;;;;;;;;12.34;67.96;99537.00;1053045;28;678;-59
2022/01/04 03:10:51;;;;;;;;;;;;;;;12.35;67.68;99541.34;1052976;28;669;-59
2022/01/04 03:11:41;;;;;;;;;;;;;;;12.35;67.70;99538.69;1052944;28;632;-59
2022/01/04 03:12:32;;;;;;;;;;;;;;;12.33;67.89;99537.97;1053134;28;750;-59
2022/01/04 03:13:22;;;;;;;;;;;;;;;12.34;68.42;99529.81;1053120;28;630;-59
2022/01/04 03:14:12;;;;;;;;;;;;;;;12.35;67.93;99534.19;1053076;28;939;-59
2022/01/04 03:15:03;;;;;;;;;;;;;;;12.34;68.12;99531.66;1053004;28;701;-59
2022/01/04 03:15:53;;;;;;;;;;;;;;;12.33;67.95;99525.47;1053141;28;743;-59
2022/01/04 03:16:44;;;;;;;;;;;;;;;12.34;68.35;99534.31;1053154;28;705;-59
2022/01/04 03:17:34;;;;;;;;;;;;;;;12.34;68.19;99534.31;1053536;28;701;-59
2022/01/04 03:18:24;;;;;;;;;;;;;;;12.33;68.46;99527.28;1053624;28;682;-59
2022/01/04 03:19:15;;;;;;;;;;;;;;;12.33;68.41;99517.44;1053546;28;626;-59
2022/01/04 03:20:05;;;;;;;;;;;;;;;12.33;68.22;99516.59;1053623;28;617;-59
2022/01/04 03:20:56;;;;;;;;;;;;;;;12.33;68.37;99520.13;1053732;28;697;-59
2022/01/04 03:21:46;;;;;;;;;;;;;;;12.34;68.45;99512.94;1053011;28;684;-59
2022/01/04 03:22:36;;;;;;;;;;;;;;;12.32;68.43;99515.75;1053063;28;729;-59
2022/01/04 03:23:27;;;;;;;;;;;;;;;12.34;68.28;99520.97;1052918;28;633;-59
2022/01/04 03:24:17;;;;;;;;;;;;;;;12.33;68.52;99511.25;1053108;28;673;-59
2022/01/04 03:25:08;;;;;;;;;;;;;;;12.35;67.67;99514.63;1053224;28;850;-59
2022/01/04 03:25:58;;;;;;;;;;;;;;;12.34;67.61;99503.09;1053116;28;681;-59
2022/01/04 03:26:49;;;;;;;;;;;;;;;12.34;67.72;99505.78;1053470;28;842;-60
2022/01/04 03:27:39;;;;;;;;;;;;;;;12.33;67.62;99500.56;1052910;28;634;-59
2022/01/04 03:28:29;;;;;;;;;;;;;;;12.35;68.41;99509.28;1053466;28;743;-60
2022/01/04 03:29:20;;;;;;;;;;;;;;;12.33;68.26;99504.09;1053359;28;1949;-59
2022/01/04 03:30:10;;;;;;;;;;;;;;;12.34;68.11;99496.91;1053573;28;737;-59
2022/01/04 03:31:01;;;;;;;;;;;;;;;12.34;67.61;99502.25;1053689;28;850;-59
2022/01/04 03:31:52;;;;;;;;;;;;;;;12.34;68.44;99489.75;1048390;28;766;-59
2022/01/04 03:32:42;;;;;;;;;;;;;;;12.33;67.59;99490.72;1048402;28;749;-59
2022/01/04 03:33:33;;;;;;;;;;;;;;;12.33;67.76;99481.88;1053200;28;696;-59
2022/01/04 03:34:23;;;;;;;;;;;;;;;12.34;67.82;99483.56;1053625;28;618;-59
2022/01/04 03:35:15;;;;;;;;;;;;;;;12.34;67.96;99483.56;1053593;28;973;-59
2022/01/04 03:36:06;;;;;;;;;;;;;;;12.34;68.34;99481.72;1054253;28;672;-59
2022/01/04 03:36:56;;;;;;;;;;;;;;;12.34;68.03;99475.56;1053565;28;942;-59
2022/01/04 03:37:47;;;;;;;;;;;;;;;12.33;68.29;99476.53;1053686;28;700;-59
2022/01/04 03:38:37;;;;;;;;;;;;;;;12.33;67.90;99471.19;1053484;28;663;-59
2022/01/04 03:39:27;;;;;;;;;;;;;;;12.33;67.75;99468.53;1053569;28;806;-59
2022/01/04 03:40:18;;;;;;;;;;;;;;;12.33;67.65;99468.53;1053471;28;681;-59
2022/01/04 03:41:08;;;;;;;;;;;;;;;12.33;68.02;99468.53;1052857;28;875;-59
2022/01/04 03:41:59;;;;;;;;;;;;;;;12.32;68.29;99473.03;1052724;28;680;-60
2022/01/04 03:42:49;;;;;;;;;;;;;;;12.33;67.71;99479.22;1053463;28;777;-59
2022/01/04 03:43:40;;;;;;;;;;;;;;;12.32;68.44;99477.53;1053511;28;668;-59
2022/01/04 03:44:30;;;;;;;;;;;;;;;12.33;67.94;99465.84;1053374;28;690;-59
2022/01/04 03:45:20;;;;;;;;;;;;;;;12.31;68.25;99463.31;1053466;28;883;-59
2022/01/04 03:46:11;;;;;;;;;;;;;;;12.32;68.52;99457.00;1053494;28;751;-59
2022/01/04 03:47:01;;;;;;;;;;;;;;;12.31;67.73;99455.31;1053397;28;1132;-60
2022/01/04 03:47:52;;;;;;;;;;;;;;;12.33;68.17;99455.16;1052952;28;1122;-59
2022/01/04 03:48:42;;;;;;;;;;;;;;;12.32;68.46;99451.66;1052929;28;692;-59
2022/01/04 03:49:33;;;;;;;;;;;;;;;12.33;68.07;99458.69;1052950;28;1963;-60
2022/01/04 03:50:23;;;;;;;;;;;;;;;12.32;68.22;99448.97;1052939;28;601;-59
2022/01/04 03:51:14;;;;;;;;;;;;;;;12.32;67.77;99451.66;1052885;28;1441;-59
2022/01/04 03:52:04;;;;;;;;;;;;;;;12.34;67.89;99448.84;1052892;28;828;-59
2022/01/04 03:52:54;;;;;;;;;;;;;;;12.34;68.42;99443.50;1054169;28;629;-58
2022/01/04 03:53:45;;;;;;;;;;;;;;;12.34;67.73;99446.16;1052965;28;752;-59
2022/01/04 03:54:35;;;;;;;;;;;;;;;12.35;68.38;99439.84;1052745;28;685;-59
2022/01/04 03:55:26;;;;;;;;;;;;;;;12.35;68.17;99450.53;1053485;28;629;-59
2022/01/04 03:56:16;;;;;;;;;;;;;;;12.34;68.57;99440.81;1052815;28;642;-60
2022/01/04 03:57:06;;;;;;;;;;;;;;;12.34;68.10;99440.81;1053124;28;669;-59
2022/01/04 03:57:57;;;;;;;;;;;;;;;12.34;67.89;99438.16;1053351;28;910;-59
2022/01/04 03:58:47;;;;;;;;;;;;;;;12.33;67.54;99442.66;1053490;28;692;-59
2022/01/04 03:59:38;;;;;;;;;;;;;;;12.33;67.88;99447.16;1053052;28;921;-59
2022/01/04 04:00:28;;;;;;;;;;;;;;;12.33;68.26;99442.66;1053213;28;754;-59
2022/01/04 04:01:19;;;;;;;;;;;;;;;12.32;68.29;99443.63;1053485;28;664;-61
2022/01/04 04:02:09;;;;;;;;;;;;;;;12.32;68.46;99435.63;1053410;28;934;-59
2022/01/04 04:02:59;;;;;;;;;;;;;;;12.33;67.89;99436.47;1053593;28;702;-59
2022/01/04 04:03:50;;;;;;;;;;;;;;;12.33;68.08;99433.78;1053637;28;636;-59
2022/01/04 04:04:40;;;;;;;;;;;;;;;12.34;67.90;99438.16;1053611;28;2316;-59
2022/01/04 04:05:31;;;;;;;;;;;;;;;12.31;67.58;99428.59;1054507;28;631;-59
2022/01/04 04:06:21;;;;;;;;;;;;;;;12.33;67.85;99428.44;1054387;28;2068;-60
2022/01/04 04:07:11;;;;;;;;;;;;;;;12.31;68.29;99425.09;1053617;28;611;-59
2022/01/04 04:08:02;;;;;;;;;;;;;;;12.32;68.60;99424.09;1053628;28;641;-59
2022/01/04 04:08:56;;;;;;;;;;;;;;;12.32;68.47;99424.94;1053503;28;788;-59
2022/01/04 04:09:47;;;;;;;;;;;;;;;12.32;68.57;99414.25;1054719;28;652;-59
2022/01/04 04:10:37;;;;;;;;;;;;;;;12.32;68.14;99408.06;1055182;28;703;-59
2022/01/04 04:11:27;;;;;;;;;;;;;;;12.32;68.50;99414.25;1053434;28;626;-59
2022/01/04 04:12:18;;;;;;;;;;;;;;;12.31;68.45;99412.56;1053420;28;903;-59
2022/01/04 04:13:08;;;;;;;;;;;;;;;12.34;68.52;99412.28;1053397;28;695;-59
2022/01/04 04:13:59;;;;;;;;;;;;;;;12.34;67.92;99416.78;1053586;28;701;-59
2022/01/04 04:14:50;;;;;;;;;;;;;;;12.33;68.41;99409.75;1053490;28;833;-59
2022/01/04 04:15:40;;;;;;;;;;;;;;;12.34;67.70;99416.78;1054578;28;668;-59
2022/01/04 04:16:33;;;;;;;;;;;;;;;12.33;68.50;99415.94;1053463;28;774;-60
2022/01/04 04:17:23;;;;;;;;;;;;;;;12.33;68.04;99421.28;1054631;28;636;-59
2022/01/04 04:18:14;;;;;;;;;;;;;;;12.34;67.60;99411.44;1053611;28;797;-60
2022/01/04 04:19:04;;;;;;;;;;;;;;;12.31;67.76;99415.25;1054064;28;751;-60
2022/01/04 04:19:54;;;;;;;;;;;;;;;12.31;67.74;99414.41;1053558;28;704;-60
2022/01/04 04:20:45;;;;;;;;;;;;;;;12.31;67.66;99415.25;1053500;28;877;-60
2022/01/04 04:21:35;;;;;;;;;;;;;;;12.33;68.57;99415.09;1053792;28;928;-59
2022/01/04 04:22:26;;;;;;;;;;;;;;;12.34;68.56;99411.44;1055015;28;617;-60
2022/01/04 04:23:16;;;;;;;;;;;;;;;12.33;67.56;99412.41;1055275;27;666;-59
2022/01/04 04:24:06;;;;;;;;;;;;;;;12.34;68.18;99406.94;1054095;28;670;-59
2022/01/04 04:24:57;;;;;;;;;;;;;;;12.33;67.96;99405.25;1053080;28;928;-60
2022/01/04 04:25:47;;;;;;;;;;;;;;;12.33;67.67;99407.09;1055181;28;640;-59
2022/01/04 04:26:38;;;;;;;;;;;;;;;12.31;67.92;99412.56;1055068;27;1099;-59
2022/01/04 04:27:28;;;;;;;;;;;;;;;12.32;67.68;99411.59;1054006;28;735;-59
2022/01/04 04:28:19;;;;;;;;;;;;;;;12.33;68.27;99417.75;1054120;28;636;-59
2022/01/04 04:29:09;;;;;;;;;;;;;;;12.31;67.90;99419.75;1053857;28;1889;-60
2022/01/04 04:29:59;;;;;;;;;;;;;;;12.32;67.76;99408.91;1054087;28;736;-59
2022/01/04 04:30:50;;;;;;;;;;;;;;;12.32;68.28;99410.75;1054032;28;645;-60
2022/01/04 04:31:40;;;;;;;;;;;;;;;12.32;67.77;99408.06;1053869;28;794;-60
2022/01/04 04:32:31;;;;;;;;;;;;;;;12.32;68.42;99408.06;1053281;28;723;-60
2022/01/04 04:33:21;;;;;;;;;;;;;;;12.32;68.28;99416.91;1054504;28;793;-60